McCook, NE

01:31 AM CDT del 08 Luglio 2015 (GMT -0500)
McCook Municipal | | Change Station
CLOSE
Current Station
Aeroporto
Location: McCook,
Altitudine: 2579 ft
Stazioni meteo nelle vicinanze

Alt. 2579 ft 40.20 °N, 100.59 °W | Updated 38 minutes ago

Coperto
Coperto
61 °F
Sembra 61 °F
N
12
Vento Variabile Vento da ESE

Oggi
Massima -- | Minima -- °F
--% Possibilità di precip.
Ieri
Massima -- | Minima -- °F
Precip. -- in
6:20 AM 9:14 PM
Gobba a levante, 57% visible
Pressione 30.04 in
Visibilità 9.0 miglia
Nuvole Molto nuvoloso 10000 ft
Punto di rugiada 51 °F
Umidità 70%
Piovosità 0.00 in
Spessore del manto nevoso Non disponibile.
Raggi UV 0 fuori da 12
Polline 4.30 fuori da 12
Qualità dell'aria Non disponibile.
Flu Activity Non disponibile.
METAR KMCK 080553Z AUTO 11010KT 9SM BKN100 16/11 A3008 RMK AO2 SLP171 T01610106 10233 20161 402560122 58005

More Conditions Fewer Conditions

Pressione 30.04 in
Visibilità 9.0 miglia
Nuvole Molto nuvoloso 10000 ft
Punto di rugiada 51 °F
Umidità 70%
Piovosità 0.00 in
Spessore del manto nevoso Non disponibile.
Raggi UV 0 fuori da 12
Polline 4.30 fuori da 12
Qualità dell'aria Non disponibile.
Flu Activity Non disponibile.
METAR KMCK 080553Z AUTO 11010KT 9SM BKN100 16/11 A3008 RMK AO2 SLP171 T01610106 10233 20161 402560122 58005

More Conditions Fewer Conditions

10-Day Weather Forecast

×

Almanac

Astronomia

Jul. 08, 2015 Alba Tramonto
Ora attuale
Crepuscolo civile
Crepuscolo nautico
Crepuscolo astronomico
Luna
Estensione della luce visibile
Lunghezza del giorno
Tomorrow will be .
, % of the Moon is Illuminated

Gli estremi di oggi

State Highs State Lows

Community

WunderPhotos

Upload Photos

1,836,064 foto caricate!

WunderBlogs® & News

Nearby

Qualità dell'aria

  Qualità dell'aria Indice AQ Inquinante
Not available.

Profondità neve

Stazione Profondità Altitudine

Attività sismica

Città  Distanza Mag. Data & Ora
Minimo Magnitudo Mostrato è 2.5.

Temperature delle acque costiere

Località Temperatura

Stations

Stazioni meteo nelle vicinanze

Ubicazione della stazione Temp. Raffreddamento del vento Punto di rugiada Umidità Vento Precip. Alt. Aggiornato Tipo